Time;durP1;ratioP1;P1;durP2;ratioP2;P2;SDS_P1;SDS_P2;PMS_P1;PMS_P2;Temp;Humidity;BMP_temperature;BMP_pressure;BME280_temperature;BME280_humidity;BME280_pressure;Samples;Min_cycle;Max_cycle;Signal;HPM_P1;HPM_P2
2021/09/29 00:00:00;;;;;;;;;35.00;33.33;24.10;50.80;;;;;;5116085;28;8773;-64
2021/09/29 00:02:25;;;;;;;;;36.00;33.67;24.10;50.60;;;;;;5115417;28;8782;-64
2021/09/29 00:04:51;;;;;;;;;38.00;35.33;24.20;50.80;;;;;;5116006;28;8769;-63
2021/09/29 00:07:17;;;;;;;;;41.33;37.00;24.10;50.50;;;;;;5115642;28;8790;-64
2021/09/29 00:09:43;;;;;;;;;39.33;36.00;24.10;50.90;;;;;;5115722;28;8856;-65
2021/09/29 00:12:10;;;;;;;;;33.00;31.67;24.10;51.00;;;;;;5115652;28;8762;-64
2021/09/29 00:14:36;;;;;;;;;36.67;34.33;24.10;51.10;;;;;;5115454;28;8758;-64
2021/09/29 00:17:02;;;;;;;;;38.67;35.00;24.10;50.90;;;;;;5115639;28;8733;-65
2021/09/29 00:19:28;;;;;;;;;41.00;36.67;24.10;50.90;;;;;;5115461;28;8932;-64
2021/09/29 00:21:53;;;;;;;;;41.00;37.00;24.10;52.00;;;;;;5115676;28;8754;-64
2021/09/29 00:24:19;;;;;;;;;39.00;35.67;24.10;51.20;;;;;;5115633;28;8786;-64
2021/09/29 00:26:45;;;;;;;;;46.33;39.67;24.10;52.20;;;;;;5115608;28;8777;-64
2021/09/29 00:29:11;;;;;;;;;44.67;39.00;24.10;51.60;;;;;;5115240;28;8876;-64
2021/09/29 00:31:39;;;;;;;;;42.00;36.33;24.00;51.40;;;;;;5115503;28;8772;-64
2021/09/29 00:34:14;;;;;;;;;44.00;38.00;24.00;51.60;;;;;;5115477;28;8809;-64
2021/09/29 00:36:45;;;;;;;;;43.67;38.67;24.10;51.30;;;;;;5115557;28;8770;-64
2021/09/29 00:39:12;;;;;;;;;38.33;35.33;24.10;51.20;;;;;;5115215;28;8805;-64
2021/09/29 00:41:39;;;;;;;;;48.00;41.33;24.00;51.20;;;;;;5115396;28;9462;-65
2021/09/29 00:44:06;;;;;;;;;48.00;41.00;24.00;51.10;;;;;;5115095;28;8884;-65
2021/09/29 00:46:32;;;;;;;;;50.00;43.00;24.00;51.50;;;;;;5115049;28;8797;-65
2021/09/29 00:48:58;;;;;;;;;46.67;39.00;24.00;51.30;;;;;;5115064;28;8778;-65
2021/09/29 00:51:24;;;;;;;;;49.00;40.33;24.00;51.40;;;;;;5115280;28;8848;-66
2021/09/29 00:53:52;;;;;;;;;47.67;41.00;23.90;51.50;;;;;;5114986;28;8773;-66
2021/09/29 00:56:20;;;;;;;;;50.33;44.00;23.90;51.40;;;;;;5115211;28;8765;-65
2021/09/29 00:58:46;;;;;;;;;48.67;42.33;23.80;51.20;;;;;;5114921;28;8828;-66
2021/09/29 01:01:12;;;;;;;;;45.00;39.00;23.80;51.80;;;;;;5114876;28;8884;-65
2021/09/29 01:03:38;;;;;;;;;48.33;41.33;23.80;51.60;;;;;;5115042;28;8802;-65
2021/09/29 01:06:16;;;;;;;;;49.00;42.00;23.80;51.50;;;;;;5115099;28;8773;-65
2021/09/29 01:08:53;;;;;;;;;48.33;42.00;23.80;51.60;;;;;;5114873;28;8880;-65
2021/09/29 01:12:13;;;;;;;;;45.67;39.67;23.80;52.00;;;;;;5115102;28;8793;-65
2021/09/29 01:14:46;;;;;;;;;49.33;42.00;23.80;51.70;;;;;;5052017;28;8756;-64
2021/09/29 01:17:15;;;;;;;;;36.67;34.67;23.80;51.90;;;;;;5104790;28;8766;-65
2021/09/29 01:19:59;;;;;;;;;47.67;40.67;23.80;51.90;;;;;;5114723;28;8784;-65
2021/09/29 01:22:44;;;;;;;;;48.67;42.00;23.80;51.90;;;;;;5114775;28;8859;-65
2021/09/29 01:25:28;;;;;;;;;45.33;40.00;23.80;52.10;;;;;;5114684;28;8753;-66
2021/09/29 01:27:56;;;;;;;;;45.33;39.33;23.80;52.30;;;;;;5099383;28;8977;-65
2021/09/29 01:30:22;;;;;;;;;47.67;41.00;23.80;52.40;;;;;;5118753;28;8761;-66
2021/09/29 01:32:48;;;;;;;;;45.00;38.67;23.80;52.40;;;;;;5118631;28;8828;-65
2021/09/29 01:35:15;;;;;;;;;48.00;40.33;23.80;52.20;;;;;;5118751;28;8750;-65
2021/09/29 01:37:41;;;;;;;;;48.33;40.67;23.90;51.90;;;;;;5118673;28;8762;-65
2021/09/29 01:40:10;;;;;;;;;44.00;38.00;23.90;52.60;;;;;;5118411;28;8904;-65
2021/09/29 01:42:35;;;;;;;;;47.67;41.00;24.00;52.00;;;;;;5118827;28;8777;-66
2021/09/29 01:45:01;;;;;;;;;44.33;39.00;23.90;52.00;;;;;;5118473;28;8765;-65
2021/09/29 01:47:27;;;;;;;;;46.67;39.67;24.00;52.40;;;;;;5118480;28;8813;-65
2021/09/29 01:50:00;;;;;;;;;46.33;40.00;24.00;52.50;;;;;;5118384;28;8758;-65
2021/09/29 01:52:28;;;;;;;;;48.67;41.67;23.90;52.60;;;;;;5118444;28;8754;-65
2021/09/29 01:54:55;;;;;;;;;43.00;37.67;23.90;52.10;;;;;;5118254;28;8834;-65
2021/09/29 01:57:23;;;;;;;;;44.67;38.67;24.00;52.00;;;;;;5118546;28;8758;-65
2021/09/29 01:59:49;;;;;;;;;48.00;41.00;24.00;52.30;;;;;;5118483;28;9431;-66
2021/09/29 02:02:16;;;;;;;;;44.67;39.00;24.00;52.10;;;;;;5118201;28;9383;-66
2021/09/29 02:04:46;;;;;;;;;44.00;38.00;24.10;52.10;;;;;;5118127;28;8773;-66
2021/09/29 02:07:12;;;;;;;;;45.33;39.33;24.10;51.80;;;;;;5118074;28;8777;-65
2021/09/29 02:09:38;;;;;;;;;48.33;42.33;24.10;52.20;;;;;;5117986;28;8796;-65
2021/09/29 02:12:04;;;;;;;;;45.00;39.67;24.00;52.50;;;;;;5117997;28;8754;-65
2021/09/29 02:14:30;;;;;;;;;49.00;42.00;24.00;52.60;;;;;;5118227;28;9423;-65
2021/09/29 02:16:56;;;;;;;;;42.33;37.33;23.90;52.70;;;;;;5117883;28;8947;-65
2021/09/29 02:19:23;;;;;;;;;47.00;41.00;23.90;52.70;;;;;;5118126;28;8761;-66
2021/09/29 02:21:50;;;;;;;;;47.33;41.00;24.00;52.80;;;;;;5117742;28;8771;-63
2021/09/29 02:24:16;;;;;;;;;47.33;41.33;24.00;52.80;;;;;;5117954;28;8746;-63
2021/09/29 02:26:42;;;;;;;;;47.00;40.00;24.00;53.80;;;;;;5117590;28;9451;-63
2021/09/29 02:29:09;;;;;;;;;45.67;39.67;24.00;52.50;;;;;;5117878;28;8774;-63
2021/09/29 02:31:35;;;;;;;;;42.33;37.67;24.10;52.60;;;;;;5117879;28;8795;-64
2021/09/29 02:34:01;;;;;;;;;43.67;38.00;24.10;52.40;;;;;;5099405;28;9548;-65
2021/09/29 02:36:27;;;;;;;;;43.67;38.67;24.00;52.70;;;;;;5117477;28;8853;-64
2021/09/29 02:38:53;;;;;;;;;50.00;42.00;24.00;52.60;;;;;;5115707;28;8878;-66
2021/09/29 02:41:20;;;;;;;;;48.67;41.67;24.00;52.70;;;;;;5117428;28;8753;-63
2021/09/29 02:43:46;;;;;;;;;49.33;42.33;24.00;52.50;;;;;;5117410;28;8749;-64
2021/09/29 02:46:12;;;;;;;;;48.00;41.67;24.00;52.50;;;;;;5117255;28;8771;-64
2021/09/29 02:48:38;;;;;;;;;52.00;43.67;24.00;52.60;;;;;;5117240;28;8781;-64
2021/09/29 02:51:04;;;;;;;;;51.67;44.67;24.00;52.40;;;;;;5117339;28;8815;-65
2021/09/29 02:53:30;;;;;;;;;53.67;46.33;24.00;51.80;;;;;;5117180;28;8757;-65
2021/09/29 02:56:01;;;;;;;;;52.33;45.33;24.00;52.50;;;;;;5099162;28;8819;-65
2021/09/29 02:58:27;;;;;;;;;44.67;38.67;24.00;52.10;;;;;;5117342;28;9559;-65
2021/09/29 03:00:55;;;;;;;;;47.67;40.67;23.90;52.20;;;;;;5117042;28;8750;-66
2021/09/29 03:03:21;;;;;;;;;45.33;39.67;23.90;52.20;;;;;;5117463;28;9447;-65
2021/09/29 03:05:48;;;;;;;;;45.67;39.67;23.90;51.90;;;;;;5116904;28;8777;-65
2021/09/29 03:08:15;;;;;;;;;42.67;38.33;23.90;52.50;;;;;;5116843;28;8805;-65
2021/09/29 03:10:42;;;;;;;;;44.67;39.33;23.90;52.00;;;;;;5116877;28;8864;-64
2021/09/29 03:13:09;;;;;;;;;43.33;38.67;23.90;52.20;;;;;;5116980;28;8784;-64
2021/09/29 03:15:35;;;;;;;;;39.67;36.00;23.90;52.50;;;;;;5116989;28;8781;-65
2021/09/29 03:18:01;;;;;;;;;42.67;38.00;23.80;52.50;;;;;;5116619;28;8838;-64
2021/09/29 03:20:27;;;;;;;;;41.67;36.33;23.80;52.90;;;;;;5116816;28;8773;-66
2021/09/29 03:22:53;;;;;;;;;45.00;39.33;23.80;52.40;;;;;;5116587;28;8757;-64
2021/09/29 03:25:20;;;;;;;;;40.67;36.00;23.80;52.50;;;;;;5116458;28;8761;-64
2021/09/29 03:27:46;;;;;;;;;37.33;35.00;23.80;52.70;;;;;;5116685;28;8812;-64
2021/09/29 03:30:13;;;;;;;;;38.00;35.33;23.80;52.60;;;;;;5116466;28;8761;-64
2021/09/29 03:32:39;;;;;;;;;42.00;37.00;23.80;52.50;;;;;;5116300;28;8793;-64
2021/09/29 03:35:06;;;;;;;;;37.00;34.67;23.80;52.80;;;;;;5116388;28;8765;-64
2021/09/29 03:37:32;;;;;;;;;36.67;34.67;23.80;52.50;;;;;;5116296;28;8773;-64
2021/09/29 03:39:58;;;;;;;;;33.00;32.00;23.80;52.60;;;;;;5116147;28;8856;-65
2021/09/29 03:42:25;;;;;;;;;42.00;37.00;23.80;52.80;;;;;;5116175;28;8819;-64
2021/09/29 03:44:51;;;;;;;;;32.67;31.67;23.80;53.20;;;;;;5116182;28;8762;-64
2021/09/29 03:47:17;;;;;;;;;36.00;34.00;23.80;53.10;;;;;;5098060;28;8816;-64
2021/09/29 03:49:43;;;;;;;;;40.33;36.67;23.80;53.20;;;;;;5115708;28;8762;-64
2021/09/29 03:52:09;;;;;;;;;44.00;38.00;23.80;52.70;;;;;;5116095;28;8793;-65
2021/09/29 03:54:35;;;;;;;;;45.00;39.67;23.80;52.50;;;;;;5116001;28;8792;-65
2021/09/29 03:57:01;;;;;;;;;39.33;36.33;23.80;53.00;;;;;;5116148;28;8770;-64
2021/09/29 03:59:27;;;;;;;;;41.67;37.33;23.90;54.00;;;;;;5115890;28;9434;-65
2021/09/29 04:01:53;;;;;;;;;40.00;36.67;23.90;53.00;;;;;;5116111;28;8851;-66
2021/09/29 04:04:19;;;;;;;;;44.33;38.33;23.80;54.20;;;;;;5116227;28;8774;-64
2021/09/29 04:06:46;;;;;;;;;38.33;35.33;23.90;52.90;;;;;;5115666;28;8790;-65
2021/09/29 04:09:12;;;;;;;;;48.33;40.33;23.90;52.60;;;;;;5115652;28;8758;-64
2021/09/29 04:11:39;;;;;;;;;45.33;39.33;23.90;52.60;;;;;;5115890;28;8781;-65
2021/09/29 04:14:06;;;;;;;;;39.33;36.00;23.90;52.80;;;;;;5115604;28;8773;-65
2021/09/29 04:16:32;;;;;;;;;45.00;39.33;23.90;53.00;;;;;;5115858;28;8777;-65
2021/09/29 04:18:58;;;;;;;;;31.00;30.00;23.90;53.20;;;;;;5115742;28;8781;-65
2021/09/29 04:21:24;;;;;;;;;41.00;37.00;23.80;53.20;;;;;;5115513;28;8855;-66
2021/09/29 04:23:50;;;;;;;;;43.33;37.67;23.80;53.20;;;;;;5115460;28;8777;-64
2021/09/29 04:26:16;;;;;;;;;46.67;41.33;23.80;53.50;;;;;;5115352;28;8784;-65
2021/09/29 04:28:42;;;;;;;;;46.67;40.00;23.80;53.40;;;;;;5115282;28;8777;-64
2021/09/29 04:31:08;;;;;;;;;41.00;36.67;23.70;53.70;;;;;;5113776;28;8799;-65
2021/09/29 04:33:34;;;;;;;;;44.00;38.33;23.70;53.60;;;;;;5114581;28;8789;-65
2021/09/29 04:36:01;;;;;;;;;39.00;35.67;23.70;53.70;;;;;;5115504;28;8753;-65
2021/09/29 04:38:28;;;;;;;;;45.00;39.00;23.60;54.00;;;;;;5114978;28;9440;-65
2021/09/29 04:40:54;;;;;;;;;45.33;39.00;23.60;54.10;;;;;;5114170;28;8826;-65
2021/09/29 04:43:20;;;;;;;;;41.33;36.00;23.70;53.70;;;;;;5113905;28;8774;-65
2021/09/29 04:45:47;;;;;;;;;49.00;42.00;23.70;53.80;;;;;;5112084;28;8785;-65
2021/09/29 04:48:13;;;;;;;;;48.33;41.00;23.70;53.70;;;;;;5112288;28;8797;-65
2021/09/29 04:50:39;;;;;;;;;48.67;41.67;23.70;53.70;;;;;;5115171;28;8819;-64
2021/09/29 04:53:06;;;;;;;;;47.00;40.67;23.70;53.70;;;;;;5114200;28;8789;-65
2021/09/29 04:55:32;;;;;;;;;50.67;44.00;23.60;53.70;;;;;;5114702;28;8785;-65
2021/09/29 04:58:02;;;;;;;;;48.33;42.00;23.60;53.90;;;;;;5114853;28;8812;-64
2021/09/29 05:00:28;;;;;;;;;46.00;40.00;23.60;53.70;;;;;;5114841;28;8757;-65
2021/09/29 05:02:54;;;;;;;;;49.67;43.00;23.50;54.00;;;;;;5114156;28;8836;-63
2021/09/29 05:05:20;;;;;;;;;46.33;40.00;23.40;55.20;;;;;;5114900;28;8742;-63
2021/09/29 05:07:52;;;;;;;;;41.67;36.67;23.60;54.10;;;;;;5113964;28;9915;-64
2021/09/29 05:10:31;;;;;;;;;48.33;41.67;23.60;53.90;;;;;;5114696;28;8800;-63
2021/09/29 05:13:00;;;;;;;;;45.00;39.33;23.60;53.80;;;;;;5114676;28;8754;-63
2021/09/29 05:15:26;;;;;;;;;45.67;40.00;23.70;53.70;;;;;;5114631;28;8757;-64
2021/09/29 05:17:52;;;;;;;;;45.00;40.00;23.70;53.40;;;;;;5114555;28;8768;-63
2021/09/29 05:20:17;;;;;;;;;47.00;40.33;23.80;53.40;;;;;;5114720;28;8773;-63
2021/09/29 05:22:43;;;;;;;;;47.00;40.67;23.80;53.30;;;;;;5114718;28;8838;-64
2021/09/29 05:25:10;;;;;;;;;43.33;38.00;23.80;53.20;;;;;;5114693;28;8761;-63
2021/09/29 05:27:36;;;;;;;;;52.00;44.33;23.80;53.30;;;;;;5096578;28;9462;-63
2021/09/29 05:30:04;;;;;;;;;51.00;43.00;23.70;53.30;;;;;;5114759;28;9480;-64
2021/09/29 05:32:29;;;;;;;;;51.67;44.33;23.70;53.50;;;;;;5114529;28;8850;-63
2021/09/29 05:34:55;;;;;;;;;51.67;43.67;23.70;53.50;;;;;;5114853;28;8769;-63
2021/09/29 05:37:21;;;;;;;;;46.00;39.33;23.70;53.40;;;;;;5096601;28;8757;-63
2021/09/29 05:39:47;;;;;;;;;52.00;44.67;23.70;53.50;;;;;;5114427;28;8911;-63
2021/09/29 05:42:13;;;;;;;;;47.00;41.00;23.60;53.80;;;;;;5114728;28;8766;-64
2021/09/29 05:44:39;;;;;;;;;46.00;40.00;23.60;54.00;;;;;;5114749;28;8792;-63
2021/09/29 05:47:06;;;;;;;;;48.67;42.33;23.70;54.00;;;;;;5114333;28;9543;-64
2021/09/29 05:49:32;;;;;;;;;49.67;42.33;23.80;53.70;;;;;;5114448;28;8742;-63
2021/09/29 05:51:57;;;;;;;;;47.67;40.67;23.80;53.80;;;;;;5114771;28;8789;-63
2021/09/29 05:54:23;;;;;;;;;49.00;42.33;23.90;53.80;;;;;;5114355;28;8858;-63
2021/09/29 05:56:49;;;;;;;;;47.33;41.00;23.80;54.00;;;;;;5096495;28;8785;-63
2021/09/29 05:59:16;;;;;;;;;44.67;39.67;23.70;54.20;;;;;;5114647;28;9399;-63
2021/09/29 06:01:42;;;;;;;;;55.75;46.75;23.70;54.50;;;;;;5130323;28;8770;-63
2021/09/29 06:04:10;;;;;;;;;54.50;47.00;23.70;54.70;;;;;;5114637;28;8825;-63
2021/09/29 06:06:35;;;;;;;;;56.00;46.50;23.80;54.70;;;;;;5113718;28;8812;-63
2021/09/29 06:09:01;;;;;;;;;66.00;53.75;23.80;54.70;;;;;;5113782;28;8746;-64
2021/09/29 06:11:27;;;;;;;;;73.75;63.75;23.70;55.00;;;;;;5095855;28;8754;-64
2021/09/29 06:13:53;;;;;;;;;82.75;77.75;23.50;55.30;;;;;;5116165;28;9453;-63
2021/09/29 06:16:19;;;;;;;;;92.75;91.50;23.40;55.70;;;;;;5117734;28;8778;-64
2021/09/29 06:18:49;;;;;;;;;93.75;90.00;23.40;55.90;;;;;;5117949;28;8757;-65
2021/09/29 06:21:17;;;;;;;;;101.50;98.75;23.40;55.90;;;;;;5117874;28;8825;-64
2021/09/29 06:23:44;;;;;;;;;97.25;89.75;23.40;55.90;;;;;;5117561;28;8780;-64
2021/09/29 06:26:10;;;;;;;;;93.75;92.75;23.40;55.90;;;;;;5117676;28;8853;-64
2021/09/29 06:28:37;;;;;;;;;111.25;107.75;23.50;55.80;;;;;;5117491;28;8904;-70
2021/09/29 06:31:07;;;;;;;;;95.50;93.75;23.50;55.80;;;;;;5117396;28;8833;-64
2021/09/29 06:33:34;;;;;;;;;84.75;83.75;23.60;55.60;;;;;;5117496;28;8808;-63
2021/09/29 06:36:01;;;;;;;;;113.75;111.25;23.60;55.70;;;;;;5117667;28;8754;-63
2021/09/29 06:38:27;;;;;;;;;102.50;102.00;23.60;55.30;;;;;;5117375;28;8776;-64
2021/09/29 06:40:53;;;;;;;;;101.00;100.25;23.80;55.20;;;;;;5117200;28;8786;-64
2021/09/29 06:43:19;;;;;;;;;99.25;96.75;23.90;54.80;;;;;;5117324;28;9430;-64
2021/09/29 06:45:44;;;;;;;;;97.75;95.00;24.00;54.20;;;;;;5117325;28;8872;-63
2021/09/29 06:48:10;;;;;;;;;130.00;126.50;24.10;54.10;;;;;;5117372;28;8782;-63
2021/09/29 06:50:37;;;;;;;;;125.50;122.00;24.20;54.00;;;;;;5117471;28;8852;-63
2021/09/29 06:53:04;;;;;;;;;116.75;114.00;24.10;53.90;;;;;;5117150;28;8859;-62
2021/09/29 06:55:30;;;;;;;;;81.25;76.75;24.20;53.20;;;;;;5117075;28;8777;-65
2021/09/29 06:57:56;;;;;;;;;89.25;87.25;24.30;53.00;;;;;;5116956;28;8773;-62
2021/09/29 07:00:23;;;;;;;;;80.75;77.50;24.40;52.90;;;;;;5117274;28;8756;-62
2021/09/29 07:02:49;;;;;;;;;76.25;67.00;24.40;53.10;;;;;;5116921;28;8813;-62
2021/09/29 07:05:17;;;;;;;;;76.50;69.25;24.20;54.30;;;;;;5116734;28;8769;-63
2021/09/29 07:07:43;;;;;;;;;78.75;71.25;24.20;53.40;;;;;;5116638;28;8793;-64
2021/09/29 07:10:10;;;;;;;;;87.25;85.50;24.20;53.50;;;;;;5116853;28;8777;-63
2021/09/29 07:12:38;;;;;;;;;80.50;72.25;24.00;53.70;;;;;;5112782;28;8754;-67
2021/09/29 07:15:05;;;;;;;;;81.50;79.50;23.90;54.20;;;;;;5098251;28;8864;-63
2021/09/29 07:17:31;;;;;;;;;83.75;80.00;24.00;54.50;;;;;;5116890;28;8766;-62
2021/09/29 07:19:57;;;;;;;;;105.50;105.25;24.20;54.10;;;;;;5116623;28;8798;-62
2021/09/29 07:22:26;;;;;;;;;93.25;93.00;24.10;54.30;;;;;;5098165;28;8790;-62
2021/09/29 07:24:53;;;;;;;;;131.75;128.25;24.00;54.50;;;;;;5116271;28;8761;-63
2021/09/29 07:27:20;;;;;;;;;81.50;81.00;24.00;54.60;;;;;;5116643;28;8855;-63
2021/09/29 07:29:45;;;;;;;;;72.00;64.00;24.10;54.70;;;;;;5116526;28;8753;-64
2021/09/29 07:32:12;;;;;;;;;66.50;54.50;24.10;55.40;;;;;;5116445;28;8800;-64
2021/09/29 07:34:38;;;;;;;;;48.67;42.33;24.20;54.40;;;;;;5116665;28;9498;-63
2021/09/29 07:37:04;;;;;;;;;46.00;39.67;24.20;54.50;;;;;;5115777;28;8788;-64
2021/09/29 07:39:30;;;;;;;;;54.67;45.67;24.30;54.50;;;;;;5115342;28;8794;-64
2021/09/29 07:41:56;;;;;;;;;92.50;91.50;24.10;55.60;;;;;;5115569;28;8738;-64
2021/09/29 07:44:22;;;;;;;;;128.50;125.75;24.10;55.00;;;;;;5116248;28;8773;-64
2021/09/29 07:46:48;;;;;;;;;128.75;125.50;24.10;55.10;;;;;;5116333;28;8801;-63
2021/09/29 07:49:16;;;;;;;;;83.75;83.50;24.20;54.90;;;;;;5116318;28;9470;-64
2021/09/29 07:51:41;;;;;;;;;78.25;74.00;24.20;55.00;;;;;;5115796;28;8885;-64
2021/09/29 07:54:07;;;;;;;;;76.50;69.25;24.20;54.80;;;;;;5115624;28;8869;-66
2021/09/29 07:56:34;;;;;;;;;62.50;51.50;24.20;54.70;;;;;;5115434;28;8746;-64
2021/09/29 07:58:59;;;;;;;;;55.00;46.00;24.20;54.90;;;;;;5115624;28;8842;-64
2021/09/29 08:01:26;;;;;;;;;50.33;42.67;24.40;54.40;;;;;;5097865;28;8770;-65
2021/09/29 08:03:52;;;;;;;;;46.67;40.33;24.40;54.00;;;;;;5115645;28;8785;-65
2021/09/29 08:06:18;;;;;;;;;46.00;39.67;24.50;54.20;;;;;;5097815;28;8784;-66
2021/09/29 08:08:43;;;;;;;;;51.00;43.00;24.70;53.90;;;;;;5115821;28;8773;-65
2021/09/29 08:11:10;;;;;;;;;44.33;39.67;24.80;53.90;;;;;;5115535;28;8828;-66
2021/09/29 08:13:36;;;;;;;;;46.67;40.67;24.80;54.20;;;;;;5115709;28;8778;-70
2021/09/29 08:16:03;;;;;;;;;54.67;46.67;24.90;54.40;;;;;;5115681;28;8762;-69
2021/09/29 08:18:29;;;;;;;;;44.00;38.00;24.70;54.50;;;;;;5115709;28;8806;-70
2021/09/29 08:20:57;;;;;;;;;50.67;43.33;24.60;54.80;;;;;;5115746;28;8870;-68
2021/09/29 08:23:31;;;;;;;;;50.67;43.00;24.50;55.20;;;;;;5115417;28;8790;-68
2021/09/29 08:28:47;;;;;;;;;49.67;42.67;24.50;54.60;;;;;;5115309;28;8758;-70
2021/09/29 08:31:51;;;;;;;;;46.67;40.33;24.70;54.60;;;;;;5115289;28;8792;-65
2021/09/29 08:34:17;;;;;;;;;52.00;44.33;24.80;53.90;;;;;;5111371;28;9574;-64
2021/09/29 08:37:06;;;;;;;;;54.00;45.33;24.90;54.00;;;;;;5115370;28;8765;-66
2021/09/29 08:44:53;;;;;;;;;47.67;41.00;24.80;53.60;;;;;;5115135;28;8846;-68
2021/09/29 08:47:28;;;;;;;;;45.67;39.67;24.80;53.10;;;;;;5114834;28;8797;-68
2021/09/29 08:50:17;;;;;;;;;48.33;41.67;24.80;53.30;;;;;;5115365;28;8800;-72
2021/09/29 09:15:19;;;;;;;;;49.00;42.33;25.50;52.10;;;;;;5114110;28;8745;-70
2021/09/29 09:17:42;;;;;;;;;51.00;43.67;25.40;51.90;;;;;;5113500;28;8769;-69
2021/09/29 09:20:14;;;;;;;;;55.33;47.33;25.30;52.00;;;;;;5115003;28;9182;-67
2021/09/29 09:22:40;;;;;;;;;52.33;45.33;25.40;52.20;;;;;;5114975;28;8786;-67
2021/09/29 09:25:07;;;;;;;;;54.33;46.00;25.40;51.40;;;;;;5114440;28;8792;-68
2021/09/29 09:27:47;;;;;;;;;55.67;47.00;25.60;51.10;;;;;;5114468;28;8794;-68
2021/09/29 09:30:28;;;;;;;;;56.00;46.00;25.80;50.40;;;;;;5114863;28;8770;-68
2021/09/29 09:32:57;;;;;;;;;49.33;42.33;25.80;50.40;;;;;;5114685;28;8790;-66
2021/09/29 09:35:39;;;;;;;;;56.33;47.67;25.90;50.20;;;;;;5114399;28;8785;-68
2021/09/29 09:38:12;;;;;;;;;52.67;45.33;26.00;49.70;;;;;;5114802;28;8792;-67
2021/09/29 09:40:38;;;;;;;;;51.67;44.67;26.20;48.90;;;;;;5114410;28;9444;-69
2021/09/29 09:43:04;;;;;;;;;51.00;44.00;26.00;48.80;;;;;;5114758;28;8796;-67
2021/09/29 09:45:43;;;;;;;;;46.67;40.33;26.10;48.90;;;;;;5114452;28;8780;-67
2021/09/29 09:48:23;;;;;;;;;46.33;40.33;26.30;48.00;;;;;;5115814;28;8817;-68
2021/09/29 09:50:53;;;;;;;;;52.00;44.67;26.20;48.20;;;;;;5118342;28;8776;-69
2021/09/29 09:53:20;;;;;;;;;40.33;37.33;26.40;48.20;;;;;;5118097;28;8782;-67
2021/09/29 09:55:46;;;;;;;;;43.00;37.00;26.50;47.50;;;;;;5118002;28;8789;-70
2021/09/29 09:58:11;;;;;;;;;29.33;29.33;26.70;48.00;;;;;;5118208;28;8774;-67
2021/09/29 10:00:37;;;;;;;;;45.67;38.67;26.80;47.30;;;;;;5118559;28;8754;-67
2021/09/29 10:03:04;;;;;;;;;48.00;41.33;26.60;46.50;;;;;;5118457;28;8801;-64
2021/09/29 10:05:30;;;;;;;;;46.67;41.33;26.90;46.80;;;;;;5118291;28;8761;-66
2021/09/29 10:07:58;;;;;;;;;43.67;38.33;26.90;45.70;;;;;;5118034;28;8838;-64
2021/09/29 10:10:46;;;;;;;;;46.33;39.33;26.80;45.60;;;;;;5118069;28;8777;-65
2021/09/29 10:27:12;;;;;;;;;43.00;38.67;27.00;45.00;;;;;;5117765;28;8774;-70
2021/09/29 10:29:45;;;;;;;;;40.67;36.67;27.00;44.80;;;;;;5117901;28;8777;-74
2021/09/29 10:37:59;;;;;;;;;36.33;33.33;27.50;43.60;;;;;;5117714;28;8765;-66
2021/09/29 10:43:00;;;;;;;;;38.33;35.67;27.60;42.90;;;;;;5117110;28;8730;-72
2021/09/29 11:29:46;;;;;;;;;26.33;26.33;29.10;36.90;;;;;;5116344;28;11390;-74
2021/09/29 11:32:25;;;;;;;;;22.75;22.75;29.30;36.50;;;;;;5116472;28;11525;-66
2021/09/29 11:34:53;;;;;;;;;24.67;24.67;29.70;35.50;;;;;;5116430;28;11521;-68
2021/09/29 12:10:24;;;;;;;;;25.00;25.00;32.50;30.20;;;;;;5012764;28;11613;-72
2021/09/29 12:12:52;;;;;;;;;24.50;24.50;33.10;30.40;;;;;;5024747;28;11631;-76
2021/09/29 12:15:18;;;;;;;;;25.00;25.00;34.00;29.70;;;;;;5004859;28;11587;-75
2021/09/29 12:17:49;;;;;;;;;19.00;19.00;35.00;28.20;;;;;;5032656;28;12517;-74
2021/09/29 12:20:19;;;;;;;;;22.00;22.00;34.90;27.60;;;;;;5030792;28;9559;-74
2021/09/29 12:22:50;;;;;;;;;27.33;27.33;34.70;27.70;;;;;;5032573;28;11488;-64
2021/09/29 12:25:55;;;;;;;;;26.75;26.75;35.10;27.60;;;;;;5098442;28;11470;-65
2021/09/29 12:31:29;;;;;;;;;25.50;25.50;35.50;26.20;;;;;;5115400;28;11409;-67
2021/09/29 12:36:32;;;;;;;;;25.50;25.50;35.60;26.40;;;;;;5114595;28;11448;-64
2021/09/29 12:38:59;;;;;;;;;18.50;18.50;35.60;25.90;;;;;;5114929;28;8793;-69
2021/09/29 12:41:28;;;;;;;;;20.50;20.50;36.30;26.30;;;;;;5115104;28;11426;-67
2021/09/29 12:44:13;;;;;;;;;26.50;26.50;36.40;25.80;;;;;;5114936;28;11451;-72
2021/09/29 12:46:39;;;;;;;;;23.00;23.00;36.00;25.60;;;;;;5113683;28;11455;-68
2021/09/29 12:49:13;;;;;;;;;21.75;21.75;36.00;25.90;;;;;;5114354;28;11434;-70
2021/09/29 12:51:45;;;;;;;;;26.00;26.00;36.60;25.40;;;;;;5114803;28;11475;-68
2021/09/29 12:54:16;;;;;;;;;26.00;26.00;37.10;25.00;;;;;;5114547;28;11549;-70
2021/09/29 12:56:42;;;;;;;;;20.00;20.00;36.90;24.70;;;;;;5114430;28;11587;-68
2021/09/29 12:59:08;;;;;;;;;23.25;23.25;36.70;25.00;;;;;;5114353;28;11458;-68
2021/09/29 13:01:33;;;;;;;;;21.00;21.00;36.30;25.60;;;;;;5114220;28;8758;-69
2021/09/29 13:03:59;;;;;;;;;115.75;115.50;35.50;25.20;;;;;;5114405;28;8820;-68
2021/09/29 13:06:26;;;;;;;;;349.50;345.25;35.50;25.90;;;;;;5114476;28;8812;-70
2021/09/29 13:08:51;;;;;;;;;32.00;30.67;35.30;25.70;;;;;;5096314;28;8796;-72
2021/09/29 13:11:17;;;;;;;;;22.50;22.50;35.00;26.70;;;;;;5114107;28;8805;-69
2021/09/29 13:13:43;;;;;;;;;24.00;24.00;34.30;26.20;;;;;;5114229;28;8926;-70
2021/09/29 13:16:09;;;;;;;;;25.25;25.25;33.10;27.60;;;;;;5114277;28;8825;-70
2021/09/29 13:21:17;;;;;;;;;23.25;23.25;31.80;29.50;;;;;;5115054;28;8774;-68
2021/09/29 13:23:59;;;;;;;;;21.75;21.75;31.30;30.00;;;;;;5116833;28;11431;-68
2021/09/29 13:37:19;;;;;;;;;24.67;24.67;30.40;32.20;;;;;;5118192;28;8801;-68
2021/09/29 13:39:45;;;;;;;;;25.33;25.33;30.30;32.20;;;;;;5118523;28;11515;-68
2021/09/29 13:42:11;;;;;;;;;26.67;26.67;30.10;32.60;;;;;;5118745;28;8773;-69
2021/09/29 13:44:37;;;;;;;;;24.67;24.00;30.00;32.40;;;;;;5118154;28;8797;-70
2021/09/29 13:47:03;;;;;;;;;25.67;24.67;29.80;33.00;;;;;;5118167;28;11605;-69
2021/09/29 13:49:30;;;;;;;;;24.67;24.67;29.80;33.30;;;;;;5118250;28;11519;-70
2021/09/29 13:51:58;;;;;;;;;49.50;43.25;30.00;33.30;;;;;;5118392;28;8754;-69
2021/09/29 13:54:25;;;;;;;;;296.00;287.60;29.70;33.10;;;;;;5116785;28;8777;-68
2021/09/29 13:57:00;;;;;;;;;53.75;45.75;29.50;33.60;;;;;;5117383;28;8774;-68
2021/09/29 14:28:55;;;;;;;;;20.67;20.67;28.30;36.20;;;;;;5116592;28;8810;-69
2021/09/29 14:31:38;;;;;;;;;20.67;20.67;28.20;36.20;;;;;;5108794;28;11470;-69
2021/09/29 14:34:04;;;;;;;;;18.67;18.67;28.00;35.90;;;;;;5116027;28;11519;-68
2021/09/29 14:36:30;;;;;;;;;19.33;19.33;27.70;36.30;;;;;;5117721;28;11503;-68
2021/09/29 14:38:56;;;;;;;;;20.67;20.67;27.70;36.70;;;;;;5116562;28;12091;-69
2021/09/29 14:41:22;;;;;;;;;22.33;22.33;27.60;36.70;;;;;;5117471;28;8777;-69
2021/09/29 14:43:47;;;;;;;;;24.67;24.67;27.60;36.70;;;;;;5116494;28;8810;-70
2021/09/29 14:46:13;;;;;;;;;19.00;19.00;27.60;37.00;;;;;;5115452;28;8802;-69
2021/09/29 14:48:39;;;;;;;;;18.00;18.00;27.60;37.50;;;;;;5116169;28;8817;-67
2021/09/29 14:51:08;;;;;;;;;15.00;14.00;27.40;37.30;;;;;;5117016;28;8770;-68
2021/09/29 14:53:35;;;;;;;;;18.67;18.67;27.30;37.10;;;;;;5117464;28;8768;-67
2021/09/29 14:56:04;;;;;;;;;13.50;13.50;26.90;37.60;;;;;;5117165;28;11556;-67
2021/09/29 14:58:30;;;;;;;;;18.00;18.00;26.90;37.70;;;;;;5117019;28;11548;-67
2021/09/29 15:00:56;;;;;;;;;19.00;19.00;27.00;37.80;;;;;;5116967;28;11437;-69
2021/09/29 15:03:23;;;;;;;;;14.25;14.25;27.00;37.60;;;;;;5115643;28;11608;-69
2021/09/29 15:05:50;;;;;;;;;17.00;17.00;26.80;38.00;;;;;;5116585;28;9447;-68
2021/09/29 15:08:17;;;;;;;;;15.67;15.67;26.70;37.90;;;;;;5116729;28;11464;-67
2021/09/29 15:10:43;;;;;;;;;16.67;16.67;26.80;38.10;;;;;;5116822;28;11415;-67
2021/09/29 15:13:11;;;;;;;;;14.00;14.00;26.80;38.70;;;;;;5114860;28;11472;-67
2021/09/29 15:15:46;;;;;;;;;14.67;14.67;26.60;38.10;;;;;;5116580;28;11413;-67
2021/09/29 15:18:17;;;;;;;;;13.00;13.00;26.50;37.70;;;;;;5115802;28;11419;-66
2021/09/29 15:47:32;;;;;;;;;17.00;17.00;25.30;41.00;;;;;;5113713;28;11403;-71
2021/09/29 15:55:12;;;;;;;;;25.33;25.33;25.10;40.60;;;;;;5114562;28;11505;-73
2021/09/29 16:05:14;;;;;;;;;31.33;31.33;25.10;40.00;;;;;;5114137;28;8855;-70
2021/09/29 16:10:44;;;;;;;;;18.00;18.00;25.20;40.00;;;;;;5114100;28;8788;-71
2021/09/29 16:16:06;;;;;;;;;6.00;6.00;25.30;39.00;;;;;;5115554;28;11394;-72
2021/09/29 16:32:01;;;;;;;;;32.33;30.67;24.20;40.90;;;;;;5111624;28;8742;-69
2021/09/29 16:34:34;;;;;;;;;29.00;29.00;24.10;41.10;;;;;;5114638;28;8961;-69
2021/09/29 16:37:00;;;;;;;;;36.33;34.33;24.20;41.10;;;;;;5115532;28;8774;-71